Delhi, Colorado
Current Conditions -  °F | °C
As of 2:54 AM on Saturday 29 Nov 2014 (Local Time) from KTAD Reporting Station
Clear Clear  
Wind Chill: 23°   Ceiling: Unl
Heat Index: 29°   Visibility: 10mi
Dew Point: 21°   Wind: 6mph
Humidity: 72%   Direction: 300°WNW
Pressure: 29.85"   Gusts: NA
Location:  37.5307°N, 104.063°W
Report Text: KTAD 290954Z AUTO 30005KT 10SM CLR M02/M06 A2985 RMK AO2 SLP077 T10171061
Loading
Personal Weather Stations






























Interactive Weather Map New forecast layout! Learn more

10-Day Weather Forecast

Advertisements
Track Severe Weather on mobile